Time,TemperatureF,DewpointF,PressureIn,WindDirection,WindDirectionDegrees,WindSpeedMPH,WindSpeedGustMPH,Humidity,HourlyPrecipIn,Conditions,Clouds,dailyrainin,SoftwareType,DateUTC
2013-03-28 00:17:00,38.3,25.6,30.21,SE,135,0.0,9.4,60,0.00,,,0.00,open2300-1.11,2013-03-28 05:17:00,
2013-03-28 01:17:00,36.7,24.9,30.20,SSE,157,0.0,5.6,62,0.00,,,0.00,open2300-1.11,2013-03-28 06:17:00,
2013-03-28 02:17:00,35.6,25.0,30.20,SE,135,0.0,0.0,65,0.00,,,0.00,open2300-1.11,2013-03-28 07:17:00,
2013-03-28 03:17:00,34.9,24.6,30.19,South,180,0.0,1.8,66,0.00,,,0.00,open2300-1.11,2013-03-28 08:17:00,
2013-03-28 04:17:00,34.0,24.4,30.18,ESE,112,0.0,5.4,68,0.00,,,0.00,open2300-1.11,2013-03-28 09:17:00,
2013-03-28 05:17:00,32.4,23.0,30.18,SE,135,0.0,0.0,68,0.00,,,0.00,open2300-1.11,2013-03-28 10:17:00,
2013-03-28 06:17:00,30.9,21.9,30.19,SSE,157,0.0,0.9,69,0.00,,,0.00,open2300-1.11,2013-03-28 11:17:00,
2013-03-28 07:17:00,29.8,21.2,30.19,SSE,157,0.0,0.0,70,0.00,,,0.00,open2300-1.11,2013-03-28 12:17:00,
2013-03-28 08:17:00,30.7,22.4,30.20,South,180,0.0,0.0,71,0.00,,,0.00,open2300-1.11,2013-03-28 13:17:00,
2013-03-28 09:17:00,37.2,28.0,30.21,SE,135,2.2,2.2,69,0.00,,,0.00,open2300-1.11,2013-03-28 14:17:00,
2013-03-28 10:17:00,44.2,31.7,30.20,ESE,112,0.0,6.0,61,0.00,,,0.00,open2300-1.11,2013-03-28 15:17:00,
2013-03-28 11:17:00,51.6,34.1,30.20,NNE,22,2.5,5.1,51,0.00,,,0.00,open2300-1.11,2013-03-28 16:17:00,
2013-03-28 12:17:00,58.8,36.8,30.20,NE,45,3.8,6.7,44,0.00,,,0.00,open2300-1.11,2013-03-28 17:17:00,
2013-03-28 13:17:00,62.2,36.9,30.18,NE,45,2.2,6.5,39,0.00,,,0.00,open2300-1.11,2013-03-28 18:17:00,
2013-03-28 14:17:00,64.8,37.7,30.16,SE,135,0.0,8.9,37,0.00,,,0.00,open2300-1.11,2013-03-28 19:17:00,
2013-03-28 15:17:00,70.5,39.2,30.14,South,180,0.0,6.9,32,0.00,,,0.00,open2300-1.11,2013-03-28 20:17:00,
2013-03-28 16:17:00,71.4,37.5,30.12,SSE,157,0.0,7.8,29,0.00,,,0.00,open2300-1.11,2013-03-28 21:17:00,
2013-03-28 17:17:00,69.4,35.7,30.10,East,90,5.4,7.4,29,0.00,,,0.00,open2300-1.11,2013-03-28 22:17:00,
2013-03-28 18:17:00,66.9,35.3,30.10,ENE,67,0.0,9.2,31,0.00,,,0.00,open2300-1.11,2013-03-28 23:17:00,
2013-03-28 19:17:00,60.4,32.4,30.13,NE,45,0.0,6.5,35,0.00,,,0.00,open2300-1.11,2013-03-29 00:17:00,
2013-03-28 20:17:00,56.1,31.4,30.13,ENE,67,0.0,0.0,39,0.00,,,0.00,open2300-1.11,2013-03-29 01:17:00,
2013-03-28 21:17:00,52.9,29.8,30.16,ENE,67,0.0,0.0,41,0.00,,,0.00,open2300-1.11,2013-03-29 02:17:00,
2013-03-28 22:17:00,50.7,29.5,30.17,ESE,112,0.0,0.0,44,0.00,,,0.00,open2300-1.11,2013-03-29 03:17:00,
2013-03-28 23:17:00,48.2,28.2,30.17,East,90,0.0,0.0,46,0.00,,,0.00,open2300-1.11,2013-03-29 04:17:00,